• Join FlightAware (Why Join?)
  • Login
  • US Flag 
03:21AM EDT


 

Airport Tracker/Info


-or-


 

Live Flight TrackerFlight Track Log ✈ SWA1035 ✈ 21-Dec-2013 ✈ KLAS - KBUF

Flight Track Log - Related Links

Times and Time Zones

All times are in EST time to prevent confusion due to time zone crossing. See the SWA1035 flight status page for this flight to view local times or setup timezone preferences in your user account.

Time Position Orientation Groundspeed Altitude Reporting Facility
EST Latitude Longitude Course Direction KTS MPH feet Rate Location/Type
01:14PM 36.0753 -115.1739 271° West 170 196 3,400  Level Los Angeles Center
01:15PM 36.0756 -115.2056 271° West 170 196 4,400 2,220 Climbing Los Angeles Center
01:16PM 36.0756 -115.2561 270° West 196 226 6,300 2,400 Climbing Los Angeles Center
01:16PM 36.0783 -115.2686 285° West 210 242 6,600 2,460 Climbing Los Angeles Center
01:17PM 36.1211 -115.2942 334° Northwest 210 242 8,900 2,820 Climbing Los Angeles Center
01:17PM 36.1425 -115.2953 358° North 224 258 10,000 3,000 Climbing Los Angeles Center
01:18PM 36.1725 -115.2553 47° Northeast 239 275 12,000 2,100 Climbing Los Angeles Center
01:19PM 36.1953 -115.1500 75° East 311 358 13,700 1,860 Climbing Los Angeles Center
01:20PM 36.1964 -115.0278 89° East 354 407 15,900 2,280 Climbing Los Angeles Center
01:21PM 36.1981 -114.8994 89° East 374 430 18,500 2,220 Climbing Los Angeles Center
01:22PM 36.1994 -114.7628 89° East 395 455 20,600 2,040 Climbing Los Angeles Center
01:23PM 36.1983 -114.6178 91° East 418 481 22,800 1,920 Climbing Los Angeles Center
01:24PM 36.1961 -114.4683 91° East 431 496 24,600 1,920 Climbing Los Angeles Center
01:25PM 36.1931 -114.2831 91° East 449 517 26,800 1,740 Climbing Los Angeles Center
01:26PM 36.2075 -114.1283 83° East 452 520 28,300 1,380 Climbing Los Angeles Center
01:27PM 36.2253 -113.9728 82° East 456 525 29,700 1,380 Climbing Los Angeles Center
01:28PM 36.2447 -113.8131 81° East 467 537 31,200 1,500 Climbing Los Angeles Center
01:29PM 36.2881 -113.6692 69° East 448 516 32,900 1,620 Climbing Los Angeles Center
01:30PM 36.3342 -113.5342 67° East 431 496 34,600 1,380 Climbing Los Angeles Center
01:31PM 36.3903 -113.3717 67° East 428 493 35,800 720 Climbing Los Angeles Center
01:32PM 36.4372 -113.2325 67° East 436 502 36,200 480 Climbing Los Angeles Center
01:33PM 36.4911 -113.0758 67° East 452 520 36,900 360 Climbing Los Angeles Center
01:34PM 36.5386 -112.9325 68° East 453 521 37,000  Climbing Los Angeles Center
01:35PM 36.5869 -112.7908 67° East 449 517 37,000  Level Los Angeles Center
01:36PM 36.6336 -112.6494 68° East 445 512 37,000  Level Los Angeles Center
01:37PM 36.6814 -112.5058 67° East 449 517 37,000  Level Los Angeles Center
01:38PM 36.7403 -112.3303 67° East 458 527 37,000  Level Los Angeles Center
01:39PM 36.7883 -112.1850 68° East 458 527 37,000  Level Los Angeles Center
01:40PM 36.8356 -112.0392 68° East 457 526 37,000  Level Los Angeles Center
01:41PM 36.8828 -111.8933 68° East 456 525 37,000  Level Los Angeles Center
01:42PM 36.9308 -111.7483 67° East 454 522 37,000  Level Los Angeles Center
01:43PM 36.9792 -111.6028 67° East 452 520 37,000  Level Denver Center
01:44PM 37.0253 -111.4569 68° East 453 521 37,000  Level Denver Center
01:45PM 37.0717 -111.3117 68° East 454 522 37,000  Level Denver Center
01:46PM 37.1181 -111.1625 69° East 461 531 37,000  Level Denver Center
01:47PM 37.1653 -111.0147 68° East 460 529 37,000  Level Denver Center
01:49PM 37.2214 -110.8336 69° East 465 535 37,000  Level Denver Center
01:50PM 37.2700 -110.6858 68° East 461 531 37,000  Level Denver Center
01:51PM 37.3186 -110.5356 68° East 465 535 37,000  Level Denver Center
01:52PM 37.3672 -110.3861 68° East 465 535 37,000  Level Denver Center
01:53PM 37.4158 -110.2353 68° East 467 537 37,000  Level Denver Center
01:54PM 37.4692 -110.0619 69° East 469 540 37,000  Level Denver Center
01:55PM 37.5153 -109.9181 68° East 465 535 37,000  Level Denver Center
01:56PM 37.5686 -109.7475 68° East 467 537 37,000  Level Denver Center
01:57PM 37.6144 -109.6008 68° East 468 539 37,000  Level Denver Center
01:58PM 37.6681 -109.4303 68° East 467 537 37,000  Level Denver Center
01:59PM 37.7208 -109.2619 68° East 463 533 37,000  Level Denver Center
02:00PM 37.7719 -109.0908 69° East 465 535 37,000  Level Denver Center
02:01PM 37.8169 -108.9464 68° East 463 533 37,000  Level Denver Center
02:02PM 37.8678 -108.7767 69° East 461 531 37,000  Level Denver Center
02:03PM 37.9117 -108.6308 69° East 462 532 37,000  Level Denver Center
02:04PM 37.9703 -108.4372 69° East 462 532 37,000  Level Denver Center
02:05PM 38.0128 -108.2917 70° East 461 531 37,000  Level Denver Center
02:07PM 38.0644 -108.1225 69° East 461 531 37,000  Level Denver Center
02:08PM 38.1172 -107.9428 69° East 467 537 37,000  Level Denver Center
02:09PM 38.1667 -107.7717 70° East 464 534 37,000  Level Denver Center
02:10PM 38.2092 -107.6239 70° East 464 534 37,000  Level Denver Center
02:11PM 38.2597 -107.4508 70° East 469 540 37,000  Level Denver Center
02:12PM 38.3025 -107.3031 70° East 465 535 37,000  Level Denver Center
02:13PM 38.3461 -107.1497 70° East 463 533 37,000  Level Denver Center
02:14PM 38.3994 -106.9644 70° East 464 534 37,000  Level Denver Center
02:15PM 38.4517 -106.7767 70° East 468 539 37,000  Level Denver Center
02:16PM 38.4956 -106.6208 70° East 469 540 37,000  Level Denver Center
02:17PM 38.5303 -106.4956 70° East 469 540 37,000  Level Denver Center
02:18PM 38.5828 -106.3094 70° East 466 536 37,000  Level Denver Center
02:19PM 38.6325 -106.1289 71° East 464 534 37,000  Level Denver Center
02:20PM 38.6733 -105.9739 71° East 463 533 37,000  Level Denver Center
02:21PM 38.7167 -105.8178 70° East 465 535 37,000  Level Denver Center
02:22PM 38.7600 -105.6617 70° East 467 537 37,000  Level Denver Center
02:24PM 38.8006 -105.5069 71° East 461 531 37,000  Level Denver Center
02:25PM 38.8500 -105.3186 71° East 466 536 37,000  Level Denver Center
02:26PM 38.8906 -105.1653 71° East 457 526 37,000  Level Denver Center
02:27PM 38.9314 -105.0100 71° East 461 531 37,000  Level Denver Center
02:28PM 38.9800 -104.8267 71° East 457 526 37,000  Level Denver Center
02:29PM 39.0214 -104.6731 71° East 457 526 37,000  Level Denver Center
02:30PM 39.0683 -104.4875 72° East 460 529 37,000  Level Denver Center
02:31PM 39.1081 -104.3311 72° East 464 534 37,000  Level Denver Center
02:32PM 39.1475 -104.1750 72° East 463 533 37,000  Level Denver Center
02:33PM 39.1958 -103.9853 72° East 466 536 37,000  Level Denver Center
02:34PM 39.2414 -103.8003 72° East 457 526 37,000  Level Denver Center
02:35PM 39.2811 -103.6447 72° East 458 527 37,000  Level Denver Center
02:36PM 39.3192 -103.4886 72° East 456 525 37,000  Level Denver Center
02:37PM 39.3592 -103.3300 72° East 464 534 37,000  Level Denver Center
02:38PM 39.3997 -103.1711 72° East 467 537 37,000  Level Denver Center
02:39PM 39.4381 -103.0094 73° East 469 540 37,000  Level Denver Center
02:40PM 39.4844 -102.8161 73° East 472 543 37,000  Level Denver Center
02:42PM 39.5211 -102.6522 74° East 476 548 37,000  Level Denver Center
02:43PM 39.5606 -102.4903 72° East 475 547 37,000  Level Denver Center
02:44PM 39.6056 -102.3044 72° East 477 549 37,000  Level Denver Center
02:45PM 39.6411 -102.1478 74° East 473 544 37,000  Level Denver Center
02:46PM 39.6767 -101.9919 73° East 471 542 37,000  Level Denver Center
02:47PM 39.7192 -101.8100 73° East 472 543 37,000  Level Denver Center
02:48PM 39.7542 -101.6533 74° East 472 543 37,000  Level Denver Center
02:49PM 39.7903 -101.4967 73° East 474 545 37,000  Level Denver Center
02:50PM 39.8325 -101.3131 73° East 476 548 37,000  Level Denver Center
02:51PM 39.8739 -101.1256 74° East 481 554 37,000  Level Denver Center
02:52PM 39.9089 -100.9667 74° East 480 552 37,000  Level Denver Center
02:53PM 39.9442 -100.8053 74° East 484 557 37,000  Level Denver Center
02:54PM 39.9867 -100.6142 74° East 491 565 37,000  Level Denver Center
02:55PM 40.0281 -100.4236 74° East 491 565 37,000  Level Denver Center
02:56PM 40.0625 -100.2608 74° East 489 563 37,000  Level Denver Center
02:57PM 40.1028 -100.0708 74° East 488 562 37,000  Level Denver Center
02:58PM 40.1411 -99.8903 74° East 486 559 37,000  Level Denver Center
02:59PM 40.1839 -99.6872 75° East 484 557 37,000  Level Denver Center
03:00PM 40.2186 -99.5192 75° East 480 552 37,000  Level Denver Center
03:01PM 40.2536 -99.3497 75° East 483 556 37,000  Level Denver Center
03:02PM 40.2881 -99.1797 75° East 485 558 37,000  Level Denver Center
03:03PM 40.3097 -99.0789 74° East 484 557 37,000  Level Minneapolis Center
03:04PM 40.3436 -98.9061 76° East 487 560 37,000  Level Minneapolis Center
03:05PM 40.3786 -98.7328 75° East 492 566 37,000  Level Minneapolis Center
03:06PM 40.4125 -98.5586 76° East 494 568 37,000  Level Minneapolis Center
03:07PM 40.4539 -98.3478 75° East 498 573 37,000  Level Minneapolis Center
03:08PM 40.4872 -98.1736 76° East 496 571 37,000  Level Minneapolis Center
03:09PM 40.5217 -97.9983 75° East 497 572 37,000  Level Minneapolis Center
03:10PM 40.5550 -97.8217 76° East 499 574 37,000  Level Minneapolis Center
03:11PM 40.5886 -97.6456 76° East 498 573 37,000  Level Minneapolis Center
03:12PM 40.6211 -97.4692 76° East 498 573 37,000  Level Minneapolis Center
03:13PM 40.6550 -97.2889 76° East 496 571 37,000  Level Minneapolis Center
03:14PM 40.6872 -97.1150 76° East 492 566 37,000  Level Minneapolis Center
03:15PM 40.7244 -96.9078 77° East 487 560 37,000  Level Minneapolis Center
03:16PM 40.7556 -96.7342 77° East 488 562 37,000  Level Minneapolis Center
03:17PM 40.7869 -96.5594 77° East 490 564 37,000  Level Minneapolis Center
03:18PM 40.8183 -96.3842 77° East 493 567 37,000  Level Minneapolis Center
03:19PM 40.8494 -96.2072 77° East 496 571 37,000  Level Minneapolis Center
03:20PM 40.8803 -96.0303 77° East 498 573 37,000  Level Minneapolis Center
03:21PM 40.9164 -95.8172 77° East 499 574 37,000 60 Level Minneapolis Center
03:22PM 40.9469 -95.6386 77° East 501 577 37,200 480 Climbing Minneapolis Center
03:23PM 40.9781 -95.4542 77° East 509 586 38,100 780 Climbing Minneapolis Center
03:25PM 41.0100 -95.2675 77° East 517 595 38,900 420 Climbing Minneapolis Center
03:26PM 41.0403 -95.0806 78° East 520 598 39,000  Climbing Minneapolis Center
03:27PM 41.0711 -94.8928 78° East 523 602 39,000  Level Minneapolis Center
03:28PM 41.1017 -94.7047 78° East 523 602 39,000  Level Minneapolis Center
03:29PM 41.1308 -94.5172 78° East 522 601 39,000  Level Minneapolis Center
03:30PM 41.1664 -94.2919 78° East 522 601 39,000  Level Minneapolis Center
03:31PM 41.1931 -94.1039 79° East 522 601 39,000  Level Minneapolis Center
03:32PM 41.2231 -93.9142 78° East 523 602 39,000  Level Minneapolis Center
03:33PM 41.2522 -93.7217 79° East 526 605 39,000  Level Minneapolis Center
03:34PM 41.2825 -93.5272 78° East 531 611 39,000  Level Minneapolis Center
03:35PM 41.3117 -93.3308 79° East 537 618 39,000  Level Minneapolis Center
03:36PM 41.3400 -93.1386 79° East 535 616 39,000  Level Minneapolis Center
03:37PM 41.3681 -92.9422 79° East 537 618 39,000  Level Minneapolis Center
03:38PM 41.4031 -92.7089 79° East 537 618 39,000  Level Minneapolis Center
03:39PM 41.4294 -92.5114 80° East 539 620 39,000  Level Minneapolis Center
03:40PM 41.4578 -92.3142 79° East 541 623 39,000  Level Minneapolis Center
03:41PM 41.4847 -92.1181 80° East 540 621 39,000  Level Minneapolis Center
03:42PM 41.5119 -91.9214 79° East 540 621 39,000  Level Minneapolis Center
03:43PM 41.5406 -91.7044 80° East 544 626 39,000  Level Minneapolis Center
03:44PM 41.5728 -91.4539 80° East 545 627 39,000  Level Chicago Center
03:45PM 41.5981 -91.2592 80° East 541 623 39,000  Level Chicago Center
03:46PM 41.6231 -91.0639 80° East 540 621 39,000  Level Chicago Center
03:47PM 41.6475 -90.8661 81° East 543 625 39,000  Level Chicago Center
03:48PM 41.6725 -90.6697 80° East 542 624 39,000  Level Chicago Center
03:49PM 41.7006 -90.4339 81° East 546 628 39,000  Level Chicago Center
03:50PM 41.7253 -90.2342 81° East 544 626 39,000  Level Chicago Center
03:51PM 41.7483 -90.0331 81° East 543 625 39,000  Level Chicago Center
03:52PM 41.7728 -89.8306 81° East 547 629 39,000  Level Chicago Center
03:53PM 41.7953 -89.6306 81° East 542 624 39,000  Level Chicago Center
03:55PM 41.8211 -89.4064 81° East 539 620 39,000  Level Chicago Center
03:56PM 41.8417 -89.2097 82° East 535 616 39,000  Level Chicago Center
03:57PM 41.8628 -89.0133 82° East 532 612 39,000  Level Chicago Center
03:58PM 41.8836 -88.8161 82° East 535 616 39,000  Level Chicago Center
03:59PM 41.9050 -88.6178 82° East 536 617 39,000  Level Chicago Center
04:00PM 41.9256 -88.4194 82° East 537 618 39,000  Level Chicago Center
04:01PM 41.9453 -88.2192 82° East 537 618 39,000  Level Chicago Center
04:02PM 41.9681 -87.9811 83° East 535 616 39,000  Level Chicago Center
04:03PM 41.9886 -87.7819 82° East 535 616 39,000  Level Chicago Center
04:04PM 42.0075 -87.5825 83° East 537 618 39,000  Level Chicago Center
04:05PM 42.0253 -87.3836 83° East 537 618 39,000  Level Chicago Center
04:06PM 42.0425 -87.1808 83° East 542 624 39,000  Level Chicago Center
04:07PM 42.0619 -86.9792 83° East 544 626 39,000  Level Chicago Center
04:08PM 42.0789 -86.7772 83° East 544 626 39,000  Level Chicago Center
04:09PM 42.0994 -86.5664 82° East 550 633 39,000  Level Chicago Center
04:10PM 42.1164 -86.3644 83° East 544 626 39,000  Level Chicago Center
04:11PM 42.1342 -86.1614 83° East 544 626 39,000  Level Chicago Center
04:12PM 42.1514 -85.9342 84° East 544 626 39,000  Level Chicago Center
04:13PM 42.1672 -85.7336 84° East 543 625 39,000  Level Chicago Center
04:14PM 42.1828 -85.5289 84° East 552 635 39,000  Level Chicago Center
04:15PM 42.1983 -85.3247 84° East 555 639 39,000  Level Chicago Center
04:16PM 42.2175 -85.0761 84° East 558 642 39,000  Level Chicago Center
04:17PM 42.2325 -84.8703 84° East 556 640 39,000  Level Chicago Center
04:18PM 42.2464 -84.6656 85° East 552 635 39,000  Level Chicago Center
04:19PM 42.2611 -84.4606 84° East 552 635 39,000  Level Chicago Center
04:20PM 42.2703 -84.3108 85° East 551 634 39,000  Level Cleveland Center
04:21PM 42.2833 -84.1047 85° East 552 635 39,000  Level Cleveland Center
04:22PM 42.2967 -83.8994 85° East 550 633 39,000 -420 Level Cleveland Center
04:23PM 42.3092 -83.6933 85° East 551 634 38,200 -960 Descending Cleveland Center
04:24PM 42.3233 -83.4483 85° East 552 635 37,100 -1,080 Descending Cleveland Center
04:25PM 42.3361 -83.2400 85° East 551 634 36,100 -900 Descending Cleveland Center
04:26PM 42.3458 -83.0572 86° East 551 634 35,300 -840 Descending Cleveland Center
04:27PM 42.3564 -82.8519 86° East 549 632 34,400 -1,080 Descending Cleveland Center
04:28PM 42.3681 -82.6119 86° East 535 616 33,100 -1,140 Descending Cleveland Center
04:29PM 42.3778 -82.4169 86° East 524 603 32,100 -1,020 Descending Cleveland Center
04:30PM 42.3869 -82.2269 86° East 511 588 31,100 -1,020 Descending Cleveland Center
04:31PM 42.3961 -82.0422 86° East 502 578 30,100 -1,020 Descending Cleveland Center
04:32PM 42.4058 -81.8542 86° East 496 571 29,100 -1,020 Descending Cleveland Center
04:33PM 42.4122 -81.6750 87° East 478 550 28,100 -1,020 Descending Cleveland Center
04:34PM 42.4203 -81.4981 86° East 470 541 27,100 -540 Descending Cleveland Center
04:35PM 42.4283 -81.2911 87° East 467 537 27,000 -60 Descending Cleveland Center
04:36PM 42.4350 -81.1131 87° East 469 540 27,000  Level Cleveland Center
04:37PM 42.4436 -80.9342 86° East 471 542 27,000  Level Cleveland Center
04:38PM 42.4811 -80.7589 74° East 480 552 27,000 -600 Level Cleveland Center
04:39PM 42.5233 -80.5894 71° East 473 544 25,800 -2,040 Descending Cleveland Center
04:40PM 42.5639 -80.4158 72° East 476 548 22,900 -2,460 Descending Cleveland Center
04:41PM 42.6044 -80.2394 73° East 482 555 20,800 -1,920 Descending Cleveland Center
04:42PM 42.6431 -80.0697 73° East 469 540 19,000 -1,740 Descending Cleveland Center
04:44PM 42.6792 -79.9189 72° East 437 503 17,300 -1,740 Descending Cleveland Center
04:45PM 42.7114 -79.7708 73° East 411 473 15,500 -1,860 Descending Cleveland Center
04:46PM 42.7489 -79.6044 73° East 385 443 13,600 -1,560 Descending Cleveland Center
04:47PM 42.7625 -79.4686 82° East 364 419 12,400 -1,560 Descending Cleveland Center
04:48PM 42.7694 -79.3364 86° East 352 405 10,500 -1,800 Descending Cleveland Center
04:49PM 42.7767 -79.2017 86° East 342 394 8,800 -1,740 Descending Cleveland Center
04:50PM 42.7856 -79.0797 84° East 315 362 7,000 -2,220 Descending Cleveland Center
04:51PM 42.7883 -78.9703 88° East 285 328 4,300 -1,980 Descending Cleveland Center
04:52PM 42.8153 -78.8936 64° Northeast 247 284 3,000 -1,020 Descending Cleveland Center
04:53PM 42.8567 -78.8392 44° Northeast 206 237 2,300 -540 Descending Cleveland Center
04:54PM 42.8892 -78.7978 43° Northeast 167 192 2,000 -300 Descending Cleveland Center
04:55PM 42.9169 -78.7597 45° Northeast 159 183 1,800 -240 Descending Cleveland Center
04:57PM 42.9333 -78.7167 42° Northeast  Level FlightAware Approximate
05:04PM 42.9404 -78.7306 42° Northeast  Level Estimated